Search for airport 
image banner adimage banner adimage banner ad
image banner ad

NV50 - Goldfield

Located in Goldfield, United States

ICAO - NV50, IATA -

Data provided by Airmate  

General information

Coordinates: N37°43'19" W117°14'11"
Elevation is 5616 feet MSL.
 
View others Airports in Nevada

Operational data

Special qualification required
Current time UTC:
Current local time:
Weather at : KTPH - Tonopah ( 40 km )
METAR: KTPH 092252Z AUTO 30009KT 260V350 10SM CLR 21/M12 A2994 RMK AO2 WSHFT 2232
TAF: KTPH 091721Z 0918/1018 VRB03KT P6SM SKC FM100000 31012G21KT P6SM FEW200 FM100300 33016G29KT P6SM FEW200 FM100900 35008KT P6SM FEW250
View NOTAMs / SUP AIP / TFR affecting this airport [VIEW]
Communications frequencies: [VIEW]

Runways:

RWY identifierQFULength (ft)Width (ft)SurfaceLDA (ft)
17315037GRAVEL
35315037GRAVEL

Airport contact information

Address: Goldfield United States

Satellite view of NV50